createdAt,value
2023-02-18T00:01:34.197Z,13.10
2023-02-18T00:04:01.630Z,13.10
2023-02-18T00:06:32.228Z,13.10
2023-02-18T00:09:02.321Z,13.10
2023-02-18T00:11:31.686Z,13.10
2023-02-18T00:14:01.654Z,13.10
2023-02-18T00:16:30.357Z,13.10
2023-02-18T00:18:59.100Z,13.10
2023-02-18T00:21:27.157Z,13.10
2023-02-18T00:23:55.264Z,13.10
2023-02-18T00:26:22.485Z,13.10
2023-02-18T00:28:53.229Z,13.10
2023-02-18T00:31:29.855Z,13.10
2023-02-18T00:34:00.227Z,13.10
2023-02-18T00:36:28.970Z,13.10
2023-02-18T00:38:59.773Z,13.10
2023-02-18T00:41:28.919Z,13.10
2023-02-18T00:43:56.337Z,13.10
2023-02-18T00:46:24.391Z,13.00
2023-02-18T00:48:53.821Z,13.10
2023-02-18T00:51:22.077Z,13.00
2023-02-18T00:53:50.878Z,13.00
2023-02-18T00:56:18.119Z,13.00
2023-02-18T00:58:45.387Z,13.00
2023-02-18T01:01:12.839Z,13.00
2023-02-18T01:03:42.342Z,13.10
2023-02-18T01:06:10.644Z,13.10
2023-02-18T01:08:38.932Z,13.10
2023-02-18T01:11:08.943Z,13.10
2023-02-18T01:13:36.752Z,13.10
2023-02-18T01:16:05.015Z,13.10
2023-02-18T01:18:32.704Z,13.00
2023-02-18T01:21:00.176Z,13.00
2023-02-18T01:23:27.571Z,12.90
2023-02-18T01:25:54.904Z,12.90
2023-02-18T01:28:25.280Z,12.90
2023-02-18T01:30:53.820Z,12.90
2023-02-18T01:33:21.816Z,12.90
2023-02-18T01:35:50.009Z,12.90
2023-02-18T01:38:17.232Z,12.90
2023-02-18T01:40:54.221Z,12.90
2023-02-18T01:43:22.344Z,12.80
2023-02-18T01:46:20.842Z,12.70
2023-02-18T01:49:07.999Z,12.70
2023-02-18T01:51:39.882Z,12.70
2023-02-18T01:54:11.288Z,12.70
2023-02-18T01:56:45.460Z,12.70
2023-02-18T01:59:25.372Z,12.70
2023-02-18T02:01:53.782Z,12.60
2023-02-18T02:04:21.827Z,12.60
2023-02-18T02:06:49.297Z,12.50
2023-02-18T02:09:20.298Z,12.50
2023-02-18T02:12:17.825Z,12.50
2023-02-18T02:15:18.747Z,12.40
2023-02-18T02:18:13.198Z,12.40
2023-02-18T02:21:20.240Z,12.40
2023-02-18T02:24:23.558Z,12.40
2023-02-18T02:27:21.552Z,12.30
2023-02-18T02:30:28.638Z,12.30
2023-02-18T02:33:19.209Z,12.30
2023-02-18T02:36:15.215Z,12.20
2023-02-18T02:39:08.160Z,12.20
2023-02-18T02:42:15.209Z,12.30
2023-02-18T02:45:22.466Z,12.30
2023-02-18T02:48:18.519Z,12.20
2023-02-18T02:51:15.600Z,12.20
2023-02-18T02:53:43.853Z,12.20
2023-02-18T02:56:19.160Z,12.10
2023-02-18T02:58:53.683Z,12.10
2023-02-18T03:02:00.722Z,12.10
2023-02-18T03:05:07.678Z,12.10
2023-02-18T03:08:14.822Z,12.20
2023-02-18T03:11:10.777Z,12.20
2023-02-18T03:13:51.503Z,12.20
2023-02-18T03:16:53.479Z,12.10
2023-02-18T03:19:34.164Z,12.10
2023-02-18T03:22:08.654Z,12.10
2023-02-18T03:24:41.030Z,12.00
2023-02-18T03:27:39.634Z,12.10
2023-02-18T03:30:29.116Z,12.00
2023-02-18T03:33:01.990Z,12.00
2023-02-18T03:35:29.870Z,12.00
2023-02-18T03:38:23.129Z,11.90
2023-02-18T03:40:50.939Z,11.90
2023-02-18T03:43:19.042Z,11.90
2023-02-18T03:45:46.288Z,11.80
2023-02-18T03:48:13.557Z,11.70
2023-02-18T03:50:40.800Z,11.60
2023-02-18T03:53:07.954Z,11.50
2023-02-18T03:55:35.183Z,11.50
2023-02-18T03:58:02.332Z,11.50
2023-02-18T04:00:29.608Z,11.50
2023-02-18T04:02:56.801Z,11.50
2023-02-18T04:05:24.007Z,11.50
2023-02-18T04:07:51.140Z,11.40
2023-02-18T04:10:18.654Z,11.40
2023-02-18T04:12:47.110Z,11.40
2023-02-18T04:15:14.658Z,11.30
2023-02-18T04:17:42.379Z,11.30
2023-02-18T04:20:09.969Z,11.30
2023-02-18T04:22:37.067Z,11.20
2023-02-18T04:25:04.527Z,11.20
2023-02-18T04:27:31.602Z,11.10
2023-02-18T04:29:59.096Z,11.10
2023-02-18T04:32:26.318Z,11.10
2023-02-18T04:34:53.598Z,11.10
2023-02-18T04:37:20.714Z,11.10
2023-02-18T04:39:47.949Z,11.20
2023-02-18T04:42:15.068Z,11.30
2023-02-18T04:44:42.280Z,11.30
2023-02-18T04:47:09.588Z,11.30
2023-02-18T04:49:36.917Z,11.40
2023-02-18T04:52:04.282Z,11.40
2023-02-18T04:54:31.758Z,11.40
2023-02-18T04:56:59.148Z,11.40
2023-02-18T04:59:26.567Z,11.30
2023-02-18T05:01:53.739Z,11.20
2023-02-18T05:04:21.043Z,11.20
2023-02-18T05:06:48.271Z,11.20
2023-02-18T05:09:16.116Z,11.20
2023-02-18T05:11:43.432Z,11.30
2023-02-18T05:14:10.836Z,11.30
2023-02-18T05:16:38.046Z,11.30
2023-02-18T05:19:05.766Z,11.30
2023-02-18T05:21:33.457Z,11.30
2023-02-18T05:24:00.815Z,11.40
2023-02-18T05:26:27.935Z,11.40
2023-02-18T05:28:55.165Z,11.40
2023-02-18T05:31:22.395Z,11.30
2023-02-18T05:33:49.708Z,11.20
2023-02-18T05:36:16.865Z,11.20
2023-02-18T05:38:44.084Z,11.20
2023-02-18T05:41:11.227Z,11.20
2023-02-18T05:43:58.395Z,11.20
2023-02-18T05:46:25.566Z,11.20
2023-02-18T05:48:52.723Z,11.10
2023-02-18T05:51:20.013Z,11.10
2023-02-18T05:53:47.103Z,11.20
2023-02-18T05:56:14.339Z,11.20
2023-02-18T05:58:41.533Z,11.20
2023-02-18T06:01:08.843Z,11.20
2023-02-18T06:03:35.955Z,11.20
2023-02-18T06:06:03.396Z,11.20
2023-02-18T06:08:30.573Z,11.20
2023-02-18T06:10:57.804Z,11.30
2023-02-18T06:13:25.034Z,11.20
2023-02-18T06:15:52.391Z,11.20
2023-02-18T06:18:19.504Z,11.20
2023-02-18T06:20:48.263Z,11.20
2023-02-18T06:23:15.754Z,11.10
2023-02-18T06:25:43.676Z,11.10
2023-02-18T06:28:10.854Z,11.20
2023-02-18T06:30:38.076Z,11.20
2023-02-18T06:33:05.251Z,11.30
2023-02-18T06:35:32.638Z,11.20
2023-02-18T06:37:59.720Z,11.10
2023-02-18T06:40:27.053Z,11.20
2023-02-18T06:42:54.300Z,11.20
2023-02-18T06:45:21.969Z,11.20
2023-02-18T06:47:49.172Z,11.10
2023-02-18T06:50:16.718Z,11.10
2023-02-18T06:52:43.814Z,11.00
2023-02-18T06:55:11.671Z,11.00
2023-02-18T06:57:38.873Z,11.00
2023-02-18T07:00:07.106Z,11.10
2023-02-18T07:02:34.246Z,11.10
2023-02-18T07:05:01.685Z,11.10
2023-02-18T07:07:28.955Z,11.20
2023-02-18T07:09:56.152Z,11.20
2023-02-18T07:12:23.399Z,11.30
2023-02-18T07:14:50.618Z,11.30
2023-02-18T07:17:17.720Z,11.30
2023-02-18T07:19:45.001Z,11.20
2023-02-18T07:22:12.213Z,11.10
2023-02-18T07:24:39.377Z,11.10
2023-02-18T07:27:06.874Z,11.10
2023-02-18T07:29:34.286Z,11.10
2023-02-18T07:32:01.451Z,11.10
2023-02-18T07:34:28.751Z,11.00
2023-02-18T07:36:55.896Z,11.00
2023-02-18T07:39:23.158Z,11.00
2023-02-18T07:41:50.359Z,11.00
2023-02-18T07:44:17.534Z,11.10
2023-02-18T07:46:47.224Z,11.20
2023-02-18T07:49:14.700Z,11.20
2023-02-18T07:51:41.838Z,11.10
2023-02-18T07:54:09.117Z,11.10
2023-02-18T07:56:36.307Z,11.10
2023-02-18T07:59:03.644Z,11.10
2023-02-18T08:01:30.876Z,11.10
2023-02-18T08:03:58.318Z,11.20
2023-02-18T08:06:38.480Z,11.20
2023-02-18T08:09:05.916Z,11.30
2023-02-18T08:11:34.276Z,11.20
2023-02-18T08:14:02.113Z,11.30
2023-02-18T08:16:29.857Z,11.40
2023-02-18T08:18:57.242Z,11.40
2023-02-18T08:21:26.213Z,11.40
2023-02-18T08:23:54.091Z,11.40
2023-02-18T08:26:22.007Z,11.40
2023-02-18T08:28:49.436Z,11.40
2023-02-18T08:31:23.834Z,11.50
2023-02-18T08:33:51.554Z,11.60
2023-02-18T08:36:19.295Z,11.60
2023-02-18T08:38:46.803Z,11.70
2023-02-18T08:41:14.670Z,11.70
2023-02-18T08:43:42.916Z,11.70
2023-02-18T08:46:16.065Z,11.80
2023-02-18T08:48:52.309Z,11.90
2023-02-18T08:51:21.950Z,12.00
2023-02-18T08:53:49.767Z,12.10
2023-02-18T08:56:17.959Z,12.20
2023-02-18T08:58:45.451Z,12.20
2023-02-18T09:01:14.115Z,12.30
2023-02-18T09:03:41.743Z,12.40
2023-02-18T09:06:09.541Z,12.40
2023-02-18T09:08:36.840Z,12.40
2023-02-18T09:11:05.099Z,12.40
2023-02-18T09:13:33.554Z,12.40
2023-02-18T09:16:04.680Z,12.50
2023-02-18T09:18:33.122Z,12.60
2023-02-18T09:21:01.235Z,12.70
2023-02-18T09:23:30.661Z,12.80
2023-02-18T09:25:58.330Z,13.00
2023-02-18T09:28:26.373Z,13.20
2023-02-18T09:30:53.637Z,13.40
2023-02-18T09:33:21.049Z,13.60
2023-02-18T09:35:48.341Z,13.70
2023-02-18T09:38:17.775Z,13.80
2023-02-18T09:40:50.569Z,14.10
2023-02-18T09:43:27.420Z,14.50
2023-02-18T09:45:55.217Z,14.90
2023-02-18T09:48:29.482Z,15.10
2023-02-18T09:50:56.789Z,15.30
2023-02-18T09:53:24.723Z,15.50
2023-02-18T09:55:55.053Z,15.50
2023-02-18T09:58:30.341Z,15.60
2023-02-18T10:01:15.841Z,15.70
2023-02-18T10:03:44.519Z,15.90
2023-02-18T10:06:33.663Z,16.00
2023-02-18T10:09:17.368Z,16.10
2023-02-18T10:11:56.591Z,16.30
2023-02-18T10:14:26.069Z,16.50
2023-02-18T10:16:54.068Z,16.70
2023-02-18T10:19:41.537Z,16.90
2023-02-18T10:22:14.954Z,17.00
2023-02-18T10:25:04.112Z,17.00
2023-02-18T10:27:35.295Z,17.10
2023-02-18T10:30:25.187Z,17.20
2023-02-18T10:33:00.202Z,17.20
2023-02-18T10:35:52.732Z,17.30
2023-02-18T10:38:32.353Z,17.40
2023-02-18T10:41:26.531Z,17.60
2023-02-18T10:44:13.428Z,17.70
2023-02-18T10:46:53.954Z,17.70
2023-02-18T10:50:00.971Z,17.90
2023-02-18T10:52:37.520Z,18.10
2023-02-18T10:55:09.592Z,18.10
2023-02-18T10:57:48.850Z,18.20
2023-02-18T11:00:26.516Z,18.30
2023-02-18T11:03:17.404Z,18.30
2023-02-18T11:05:47.253Z,18.20
2023-02-18T11:08:22.920Z,18.20
2023-02-18T11:10:50.980Z,18.10
2023-02-18T11:13:28.620Z,18.10
2023-02-18T11:16:03.748Z,18.10
2023-02-18T11:18:43.060Z,18.30
2023-02-18T11:21:31.938Z,18.30
2023-02-18T11:24:09.405Z,18.20
2023-02-18T11:26:39.383Z,17.90
2023-02-18T11:29:21.128Z,17.80
2023-02-18T11:31:52.510Z,17.90
2023-02-18T11:34:30.839Z,17.80
2023-02-18T11:37:11.307Z,17.90
2023-02-18T11:39:44.747Z,18.10
2023-02-18T11:42:15.985Z,18.10
2023-02-18T11:44:56.800Z,18.00
2023-02-18T11:47:28.471Z,18.20
2023-02-18T11:50:15.560Z,18.40
2023-02-18T11:52:47.915Z,18.50
2023-02-18T11:55:19.749Z,18.30
2023-02-18T11:58:13.611Z,18.20
2023-02-18T12:00:46.084Z,18.20
2023-02-18T12:03:39.102Z,18.20
2023-02-18T12:06:18.492Z,18.20
2023-02-18T12:09:25.506Z,18.20
2023-02-18T12:12:01.715Z,18.20
2023-02-18T12:14:29.873Z,18.20
2023-02-18T12:17:26.361Z,18.20
2023-02-18T12:20:25.364Z,18.30
2023-02-18T12:23:17.198Z,18.40
2023-02-18T12:26:00.376Z,18.20
2023-02-18T12:29:07.386Z,18.30
2023-02-18T12:32:14.426Z,18.30
2023-02-18T12:35:12.264Z,18.20
2023-02-18T12:38:05.017Z,18.40
2023-02-18T12:41:08.890Z,18.50
2023-02-18T12:44:07.085Z,18.60
2023-02-18T12:47:11.705Z,18.60
2023-02-18T12:50:12.859Z,18.60
2023-02-18T12:53:14.544Z,18.40
2023-02-18T12:56:14.604Z,18.30
2023-02-18T12:59:00.239Z,18.50
2023-02-18T13:02:07.193Z,18.90
2023-02-18T13:04:59.323Z,19.00
2023-02-18T13:07:37.198Z,19.10
2023-02-18T13:10:38.224Z,19.00
2023-02-18T13:13:32.302Z,18.90
2023-02-18T13:16:09.369Z,18.80
2023-02-18T13:18:42.532Z,18.70
2023-02-18T13:21:13.187Z,18.80
2023-02-18T13:24:06.432Z,18.70
2023-02-18T13:26:35.071Z,18.60
2023-02-18T13:29:41.943Z,18.60
2023-02-18T13:32:36.653Z,18.60
2023-02-18T13:35:38.313Z,18.50
2023-02-18T13:38:38.068Z,18.60
2023-02-18T13:41:05.764Z,18.60
2023-02-18T13:43:34.898Z,18.50
2023-02-18T13:46:19.109Z,18.40
2023-02-18T13:49:04.355Z,18.40
2023-02-18T13:51:52.428Z,18.50
2023-02-18T13:54:31.745Z,18.40
2023-02-18T13:57:22.907Z,18.40
2023-02-18T13:59:56.993Z,18.30
2023-02-18T14:02:35.893Z,18.20
2023-02-18T14:05:21.758Z,18.30
2023-02-18T14:08:06.282Z,18.30
2023-02-18T14:10:35.890Z,18.30
2023-02-18T14:13:38.668Z,18.30
2023-02-18T14:16:06.520Z,18.30
2023-02-18T14:19:00.594Z,18.30
2023-02-18T14:21:47.502Z,18.30
2023-02-18T14:24:34.748Z,18.30
2023-02-18T14:27:15.129Z,18.30
2023-02-18T14:29:43.300Z,18.30
2023-02-18T14:32:12.374Z,18.30
2023-02-18T14:35:08.232Z,18.30
2023-02-18T14:38:03.451Z,18.30
2023-02-18T14:41:02.089Z,18.30
2023-02-18T14:44:01.018Z,18.30
2023-02-18T14:47:00.385Z,18.30
2023-02-18T14:49:39.394Z,18.30
2023-02-18T14:52:32.037Z,18.30
2023-02-18T14:55:01.887Z,18.30
2023-02-18T14:57:56.416Z,18.30
2023-02-18T15:00:27.104Z,18.20
2023-02-18T15:02:55.484Z,18.30
2023-02-18T15:05:29.941Z,18.20
2023-02-18T15:08:06.047Z,18.20
2023-02-18T15:10:58.677Z,18.20
2023-02-18T15:13:32.783Z,18.20
2023-02-18T15:16:08.641Z,18.20
2023-02-18T15:18:49.336Z,18.30
2023-02-18T15:21:29.342Z,18.30
2023-02-18T15:24:26.820Z,18.20
2023-02-18T15:26:57.500Z,18.20
2023-02-18T15:29:35.792Z,18.10
2023-02-18T15:32:19.809Z,18.10
2023-02-18T15:34:51.113Z,18.00
2023-02-18T15:37:18.647Z,18.00
2023-02-18T15:39:46.829Z,18.10
2023-02-18T15:42:33.276Z,18.20
2023-02-18T15:45:25.881Z,18.20
2023-02-18T15:47:57.457Z,18.20
2023-02-18T15:50:29.162Z,18.10
2023-02-18T15:52:59.986Z,18.10
2023-02-18T15:55:46.096Z,18.10
2023-02-18T15:58:37.348Z,18.00
2023-02-18T16:01:07.734Z,17.90
2023-02-18T16:03:46.912Z,17.90
2023-02-18T16:06:26.360Z,17.80
2023-02-18T16:09:01.640Z,17.80
2023-02-18T16:11:35.674Z,17.80
2023-02-18T16:14:03.480Z,17.70
2023-02-18T16:16:36.265Z,17.70
2023-02-18T16:19:04.412Z,17.60
2023-02-18T16:21:53.458Z,17.50
2023-02-18T16:24:41.403Z,17.50
2023-02-18T16:27:17.208Z,17.50
2023-02-18T16:29:44.888Z,17.50
2023-02-18T16:32:12.131Z,17.50
2023-02-18T16:34:39.480Z,17.40
2023-02-18T16:37:26.559Z,17.40
2023-02-18T16:39:55.355Z,17.20
2023-02-18T16:42:22.600Z,17.10
2023-02-18T16:44:50.831Z,17.10
2023-02-18T16:47:19.748Z,17.10
2023-02-18T16:49:50.263Z,17.00
2023-02-18T16:52:19.534Z,17.00
2023-02-18T16:54:48.501Z,16.90
2023-02-18T16:57:15.605Z,16.90
2023-02-18T16:59:42.920Z,16.80
2023-02-18T17:02:18.961Z,16.70
2023-02-18T17:04:46.359Z,16.70
2023-02-18T17:07:13.661Z,16.60
2023-02-18T17:09:40.986Z,16.50
2023-02-18T17:12:09.550Z,16.40
2023-02-18T17:14:36.710Z,16.40
2023-02-18T17:17:11.230Z,16.30
2023-02-18T17:19:38.379Z,16.30
2023-02-18T17:22:05.811Z,16.30
2023-02-18T17:24:33.087Z,16.30
2023-02-18T17:27:00.248Z,16.30
2023-02-18T17:29:27.421Z,16.30
2023-02-18T17:31:57.827Z,16.30
2023-02-18T17:34:28.035Z,16.20
2023-02-18T17:36:55.351Z,16.20
2023-02-18T17:39:24.772Z,16.00
2023-02-18T17:41:52.382Z,15.90
2023-02-18T17:44:21.774Z,15.80
2023-02-18T17:46:53.045Z,15.70
2023-02-18T17:49:21.118Z,15.60
2023-02-18T17:51:48.422Z,15.50
2023-02-18T17:54:19.524Z,15.40
2023-02-18T17:56:47.010Z,15.40
2023-02-18T17:59:14.559Z,15.40
2023-02-18T18:01:42.679Z,15.40
2023-02-18T18:04:15.663Z,15.40
2023-02-18T18:06:43.901Z,15.40
2023-02-18T18:09:10.991Z,15.30
2023-02-18T18:11:39.138Z,15.30
2023-02-18T18:14:06.326Z,15.30
2023-02-18T18:16:33.625Z,15.30
2023-02-18T18:19:00.778Z,15.30
2023-02-18T18:21:34.534Z,15.20
2023-02-18T18:24:02.244Z,15.20
2023-02-18T18:26:30.118Z,15.00
2023-02-18T18:28:57.539Z,14.90
2023-02-18T18:31:24.905Z,14.90
2023-02-18T18:33:53.766Z,14.80
2023-02-18T18:36:24.471Z,14.80
2023-02-18T18:38:52.315Z,14.80
2023-02-18T18:41:21.753Z,14.70
2023-02-18T18:43:49.881Z,14.60
2023-02-18T18:46:17.573Z,14.50
2023-02-18T18:48:45.133Z,14.50
2023-02-18T18:51:22.806Z,14.50
2023-02-18T18:53:50.168Z,14.50
2023-02-18T18:56:17.267Z,14.50
2023-02-18T18:58:44.517Z,14.40
2023-02-18T19:01:17.516Z,14.30
2023-02-18T19:03:46.691Z,14.30
2023-02-18T19:06:15.102Z,14.20
2023-02-18T19:08:42.613Z,14.10
2023-02-18T19:11:12.802Z,14.10
2023-02-18T19:13:40.669Z,14.10
2023-02-18T19:16:32.022Z,14.10
2023-02-18T19:18:59.260Z,14.10
2023-02-18T19:21:26.391Z,14.00
2023-02-18T19:23:53.781Z,13.90
2023-02-18T19:26:21.039Z,13.80
2023-02-18T19:28:48.278Z,13.60
2023-02-18T19:31:16.086Z,13.60
2023-02-18T19:33:45.674Z,13.50
2023-02-18T19:36:14.815Z,13.50
2023-02-18T19:38:42.202Z,13.40
2023-02-18T19:41:12.514Z,13.40
2023-02-18T19:43:41.439Z,13.40
2023-02-18T19:46:13.613Z,13.30
2023-02-18T19:48:41.375Z,13.30
2023-02-18T19:51:09.682Z,13.30
2023-02-18T19:53:38.157Z,13.10
2023-02-18T19:56:09.281Z,12.90
2023-02-18T19:58:37.093Z,12.90
2023-02-18T20:01:04.587Z,12.80
2023-02-18T20:03:31.802Z,12.80
2023-02-18T20:05:58.957Z,12.90
2023-02-18T20:08:26.252Z,12.90
2023-02-18T20:10:59.064Z,13.00
2023-02-18T20:13:27.091Z,13.10
2023-02-18T20:15:54.428Z,13.10
2023-02-18T20:18:21.715Z,13.10
2023-02-18T20:20:50.093Z,13.10
2023-02-18T20:23:17.357Z,13.20
2023-02-18T20:25:47.831Z,13.20
2023-02-18T20:28:15.448Z,13.20
2023-02-18T20:30:44.064Z,13.20
2023-02-18T20:33:11.328Z,13.20
2023-02-18T20:35:38.511Z,13.00
2023-02-18T20:38:05.703Z,13.00
2023-02-18T20:40:32.843Z,13.00
2023-02-18T20:43:00.084Z,12.90
2023-02-18T20:45:27.220Z,12.90
2023-02-18T20:47:54.425Z,12.90
2023-02-18T20:50:21.942Z,13.00
2023-02-18T20:52:49.161Z,13.00
2023-02-18T20:55:16.429Z,13.00
2023-02-18T20:57:43.735Z,13.10
2023-02-18T21:00:11.825Z,13.10
2023-02-18T21:02:39.218Z,13.10
2023-02-18T21:05:06.626Z,13.10
2023-02-18T21:07:33.866Z,13.00
2023-02-18T21:10:00.982Z,13.00
2023-02-18T21:12:28.186Z,13.00
2023-02-18T21:14:55.376Z,12.90
2023-02-18T21:17:23.022Z,12.80
2023-02-18T21:19:50.147Z,12.80
2023-02-18T21:22:17.326Z,12.80
2023-02-18T21:24:44.491Z,12.80
2023-02-18T21:27:11.751Z,12.80
2023-02-18T21:29:38.870Z,12.80
2023-02-18T21:32:06.101Z,12.70
2023-02-18T21:34:33.300Z,12.80
2023-02-18T21:37:00.471Z,12.80
2023-02-18T21:39:27.608Z,12.80
2023-02-18T21:41:54.858Z,12.80
2023-02-18T21:44:27.372Z,12.80
2023-02-18T21:47:03.969Z,12.80
2023-02-18T21:49:31.058Z,12.80
2023-02-18T21:52:08.287Z,12.80
2023-02-18T21:54:40.102Z,12.80
2023-02-18T21:57:12.958Z,12.70
2023-02-18T21:59:41.931Z,12.70
2023-02-18T22:02:16.931Z,12.70
2023-02-18T22:04:44.218Z,12.70
2023-02-18T22:07:11.504Z,12.70
2023-02-18T22:09:38.977Z,12.70
2023-02-18T22:12:06.743Z,12.70
2023-02-18T22:14:34.096Z,12.70
2023-02-18T22:17:01.432Z,12.70
2023-02-18T22:19:28.697Z,12.70
2023-02-18T22:21:55.994Z,12.60
2023-02-18T22:24:23.225Z,12.60
2023-02-18T22:26:50.577Z,12.60
2023-02-18T22:29:19.783Z,12.60
2023-02-18T22:31:47.582Z,12.50
2023-02-18T22:34:14.806Z,12.50
2023-02-18T22:36:42.682Z,12.50
2023-02-18T22:39:12.102Z,12.40
2023-02-18T22:41:39.444Z,12.40
2023-02-18T22:44:11.648Z,12.30
2023-02-18T22:46:39.949Z,12.30
2023-02-18T22:49:08.123Z,12.20
2023-02-18T22:51:38.071Z,12.20
2023-02-18T22:54:08.362Z,12.10
2023-02-18T22:56:35.785Z,12.10
2023-02-18T22:59:03.056Z,12.00
2023-02-18T23:01:36.118Z,12.00
2023-02-18T23:04:09.147Z,11.90
2023-02-18T23:06:37.741Z,11.90
2023-02-18T23:09:06.395Z,11.90
2023-02-18T23:11:34.261Z,11.90
2023-02-18T23:14:21.415Z,11.80
2023-02-18T23:17:11.483Z,11.80
2023-02-18T23:19:43.938Z,11.80
2023-02-18T23:22:12.807Z,11.70
2023-02-18T23:24:42.614Z,11.60
2023-02-18T23:27:12.121Z,11.60
2023-02-18T23:29:39.707Z,11.60
2023-02-18T23:32:07.821Z,11.60
2023-02-18T23:34:35.276Z,11.50
2023-02-18T23:37:03.405Z,11.50
2023-02-18T23:39:30.708Z,11.50
2023-02-18T23:41:58.298Z,11.50
2023-02-18T23:44:26.694Z,11.50
2023-02-18T23:46:54.186Z,11.50
2023-02-18T23:49:24.249Z,11.50
2023-02-18T23:51:53.456Z,11.50
2023-02-18T23:54:21.524Z,11.60
2023-02-18T23:56:49.031Z,11.60
2023-02-18T23:59:16.337Z,11.70
